Time;durP1;ratioP1;P1;durP2;ratioP2;P2;SDS_P1;SDS_P2;PMS_P1;PMS_P2;Temp;Humidity;BMP_temperature;BMP_pressure;BME280_temperature;BME280_humidity;BME280_pressure;Samples;Min_cycle;Max_cycle;Signal;HPM_P1;HPM_P2
2022/05/08 00:00:43;;;;;;;0.10;0.10;;;;;;;15.83;59.22;102830.25;5095707;22;20075;-83
2022/05/08 00:03:09;;;;;;;0.00;0.00;;;;;;;15.89;59.04;102839.97;5083614;28;20035;-84
2022/05/08 00:05:36;;;;;;;0.10;0.10;;;;;;;15.84;59.11;102832.03;5104058;28;20020;-84
2022/05/08 00:08:02;;;;;;;0.10;0.10;;;;;;;15.84;58.98;102832.91;5091936;28;20055;-83
2022/05/08 00:10:28;;;;;;;0.40;0.40;;;;;;;15.83;59.13;102828.44;5063622;28;20047;-82
2022/05/08 00:12:54;;;;;;;0.30;0.30;;;;;;;15.79;59.03;102840.06;5074788;28;20039;-82
2022/05/08 00:15:20;;;;;;;0.22;0.22;;;;;;;15.78;59.11;102832.06;5069902;28;20061;-83
2022/05/08 00:17:46;;;;;;;0.13;0.13;;;;;;;15.76;58.56;102834.72;5066167;28;20036;-83
2022/05/08 00:20:13;;;;;;;0.30;0.30;;;;;;;15.70;58.68;102834.78;5070754;28;20047;-83
2022/05/08 00:22:46;;;;;;;1.75;1.45;;;;;;;15.74;58.83;102825.84;5072496;28;20024;-84
2022/05/08 00:25:13;;;;;;;0.00;0.00;;;;;;;15.71;58.95;102820.53;5077859;28;20029;-82
2022/05/08 00:27:39;;;;;;;0.32;0.20;;;;;;;15.69;58.80;102822.34;5075774;28;20028;-83
2022/05/08 00:30:09;;;;;;;0.08;0.08;;;;;;;15.68;58.61;102831.25;5073507;28;20037;-84
2022/05/08 00:32:35;;;;;;;0.38;0.38;;;;;;;15.64;58.92;102825.06;5069709;28;20040;-83
2022/05/08 00:35:01;;;;;;;0.10;0.10;;;;;;;15.62;58.62;102833.97;5067249;28;20028;-82
2022/05/08 00:37:27;;;;;;;0.20;0.20;;;;;;;15.64;58.48;102818.84;5069395;28;20580;-84
2022/05/08 00:39:54;;;;;;;0.20;0.20;;;;;;;15.64;58.27;102832.19;5071780;28;20399;-83
2022/05/08 00:42:20;;;;;;;0.08;0.08;;;;;;;15.60;58.28;102834.00;5063772;28;20090;-84
2022/05/08 00:44:46;;;;;;;0.45;0.45;;;;;;;15.55;58.60;102837.59;5071557;28;20067;-84
2022/05/08 00:47:12;;;;;;;0.00;0.00;;;;;;;15.53;58.53;102846.50;5068528;28;20021;-84
2022/05/08 00:49:38;;;;;;;0.10;0.10;;;;;;;15.53;58.63;102842.97;5064968;28;20024;-82
2022/05/08 00:52:07;;;;;;;0.40;0.10;;;;;;;15.42;58.72;102847.53;5066094;28;20029;-83
2022/05/08 00:54:34;;;;;;;0.00;0.00;;;;;;;15.40;58.84;102850.19;5071385;28;20020;-83
2022/05/08 00:57:00;;;;;;;0.00;0.00;;;;;;;15.42;58.93;102847.53;5064165;28;20021;-84
2022/05/08 00:59:26;;;;;;;0.10;0.10;;;;;;;15.34;59.09;102840.44;5065714;28;20408;-84
2022/05/08 01:01:52;;;;;;;0.10;0.10;;;;;;;15.30;58.93;102846.72;5067344;28;20401;-82
2022/05/08 01:04:18;;;;;;;4.38;1.75;;;;;;;15.27;59.01;102840.53;5065289;28;20043;-82
2022/05/08 01:06:46;;;;;;;0.10;0.10;;;;;;;15.32;58.67;102838.69;5068336;28;20031;-83
2022/05/08 01:09:12;;;;;;;0.00;0.00;;;;;;;15.28;58.71;102850.31;5074046;28;20024;-84
2022/05/08 01:11:38;;;;;;;0.00;0.00;;;;;;;15.25;58.57;102837.84;5069754;28;20067;-83
2022/05/08 01:14:04;;;;;;;0.00;0.00;;;;;;;15.14;58.95;102851.28;5069466;28;20473;-83
2022/05/08 01:16:30;;;;;;;0.00;0.00;;;;;;;15.17;58.73;102845.91;5075824;28;20594;-84
2022/05/08 01:18:56;;;;;;;0.00;0.00;;;;;;;15.13;58.63;102843.28;5077048;28;20032;-83
2022/05/08 01:21:31;;;;;;;0.10;0.10;;;;;;;15.14;58.67;102845.94;5073202;28;20036;-82
2022/05/08 01:23:57;;;;;;;0.00;0.00;;;;;;;15.04;59.00;102842.44;5080580;28;20047;-82
2022/05/08 01:26:23;;;;;;;0.00;0.00;;;;;;;14.93;58.79;102835.41;5073143;28;20032;-82
2022/05/08 01:28:50;;;;;;;0.30;0.30;;;;;;;14.95;58.94;102841.63;5073818;28;20059;-82
2022/05/08 01:31:16;;;;;;;0.57;0.57;;;;;;;14.92;59.18;102839.00;5074442;28;20034;-82
2022/05/08 01:33:42;;;;;;;0.10;0.10;;;;;;;14.92;59.04;102841.66;5076526;28;20028;-83
2022/05/08 01:36:08;;;;;;;0.10;0.10;;;;;;;14.83;58.56;102846.13;5080526;28;20032;-82
2022/05/08 01:38:34;;;;;;;0.70;0.70;;;;;;;14.75;58.63;102850.63;5074419;28;20029;-83
2022/05/08 01:41:04;;;;;;;1.02;1.02;;;;;;;14.71;58.62;102849.75;5070568;28;20027;-84
2022/05/08 01:43:34;;;;;;;0.25;0.17;;;;;;;14.62;58.66;102848.91;5070635;28;20060;-84
2022/05/08 01:46:01;;;;;;;0.00;0.00;;;;;;;14.53;58.94;102842.69;5071986;28;20047;-84
2022/05/08 01:48:27;;;;;;;0.08;0.08;;;;;;;14.48;58.83;102847.19;5066847;28;20416;-83
2022/05/08 01:50:55;;;;;;;0.00;0.00;;;;;;;14.42;59.15;102843.63;5069631;28;20021;-83
2022/05/08 01:53:25;;;;;;;0.00;0.00;;;;;;;14.34;58.88;102852.56;5072826;28;20058;-84
2022/05/08 01:55:54;;;;;;;0.05;0.05;;;;;;;14.24;59.59;102859.72;5067621;28;20029;-83
2022/05/08 01:58:21;;;;;;;0.05;0.05;;;;;;;14.18;59.31;102857.06;5069281;28;20058;-83
2022/05/08 02:00:48;;;;;;;0.00;0.00;;;;;;;14.12;59.05;102859.75;5074755;28;20029;-83
2022/05/08 02:03:15;;;;;;;0.10;0.10;;;;;;;14.05;59.43;102858.84;5071806;28;20025;-82
2022/05/08 02:05:42;;;;;;;0.20;0.20;;;;;;;13.98;59.42;102856.22;5075141;28;20468;-84
2022/05/08 02:08:09;;;;;;;0.40;0.40;;;;;;;13.85;60.27;102866.00;5071691;28;20041;-82
2022/05/08 02:10:35;;;;;;;0.05;0.05;;;;;;;13.83;59.60;102868.69;5066173;28;20119;-83
2022/05/08 02:13:01;;;;;;;0.00;0.00;;;;;;;13.74;59.74;102866.00;5063518;28;20033;-82
2022/05/08 02:15:29;;;;;;;0.15;0.15;;;;;;;13.64;59.18;102864.25;5060605;28;20448;-82
2022/05/08 02:18:01;;;;;;;0.00;0.00;;;;;;;13.60;59.07;102868.69;5063460;28;20085;-82
2022/05/08 02:20:27;;;;;;;0.20;0.20;;;;;;;13.50;59.44;102870.47;5062341;28;20705;-82
2022/05/08 02:22:54;;;;;;;1.95;0.80;;;;;;;13.43;58.77;102876.66;5063379;28;20029;-82
2022/05/08 02:25:21;;;;;;;0.10;0.10;;;;;;;13.29;58.95;102876.63;5066813;28;20040;-82
2022/05/08 02:27:51;;;;;;;0.30;0.30;;;;;;;13.27;59.20;102876.63;5064470;28;20058;-83
2022/05/08 02:30:20;;;;;;;0.00;0.00;;;;;;;13.21;58.68;102873.97;5062735;28;20498;-83
2022/05/08 02:32:46;;;;;;;1.00;1.00;;;;;;;13.08;58.75;102867.72;5066365;28;20032;-83
2022/05/08 02:35:13;;;;;;;0.03;0.03;;;;;;;13.07;58.69;102871.28;5068890;28;20025;-83
2022/05/08 02:37:40;;;;;;;0.10;0.10;;;;;;;13.00;58.69;102876.59;5067943;28;20056;-83
2022/05/08 02:40:08;;;;;;;0.00;0.00;;;;;;;12.90;59.02;102873.88;5074759;28;20036;-85
2022/05/08 02:42:36;;;;;;;0.10;0.10;;;;;;;12.94;58.92;102880.97;5077710;28;20045;-83
2022/05/08 02:45:03;;;;;;;0.00;0.00;;;;;;;12.88;59.10;102883.63;5072315;28;20101;-84
2022/05/08 02:47:31;;;;;;;0.00;0.00;;;;;;;12.85;58.93;102878.31;5071566;28;20025;-83
2022/05/08 02:49:57;;;;;;;1.20;1.17;;;;;;;12.82;59.12;102880.06;5073140;28;20037;-84
2022/05/08 02:52:23;;;;;;;0.00;0.00;;;;;;;12.81;58.82;102889.84;5071121;28;20040;-83
2022/05/08 02:54:49;;;;;;;0.05;0.05;;;;;;;12.73;59.21;102888.91;5073092;28;20032;-83
2022/05/08 03:00:05;;;;;;;0.05;0.05;;;;;;;12.68;58.67;102883.56;5070653;28;20096;-84
2022/05/08 03:02:34;;;;;;;0.10;0.10;;;;;;;12.59;59.00;102891.50;5071783;28;20077;-83
2022/05/08 03:05:01;;;;;;;0.10;0.10;;;;;;;12.64;58.67;102891.53;5073972;28;20482;-84
2022/05/08 03:07:27;;;;;;;0.10;0.10;;;;;;;12.62;58.98;102897.75;5073200;28;20100;-83
2022/05/08 03:09:53;;;;;;;0.90;0.43;;;;;;;12.55;59.01;102901.25;5088536;28;20032;-82
2022/05/08 03:12:19;;;;;;;0.10;0.10;;;;;;;12.51;59.07;102894.13;5091242;28;20036;-83
2022/05/08 03:14:45;;;;;;;8.70;1.38;;;;;;;12.46;59.44;102896.78;5074836;28;20036;-84
2022/05/08 03:17:12;;;;;;;0.05;0.05;;;;;;;12.46;59.05;102903.84;5073204;28;20032;-84
2022/05/08 03:19:38;;;;;;;0.00;0.00;;;;;;;12.40;59.01;102907.38;5069309;28;20029;-83
2022/05/08 03:22:05;;;;;;;0.00;0.00;;;;;;;12.36;59.82;102899.38;5074042;28;20056;-84
2022/05/08 03:24:31;;;;;;;0.10;0.10;;;;;;;12.36;58.79;102899.38;5077835;28;20029;-83
2022/05/08 03:26:57;;;;;;;0.08;0.08;;;;;;;12.26;59.66;102901.06;5073421;28;20028;-84
2022/05/08 03:29:25;;;;;;;0.00;0.00;;;;;;;12.26;59.77;102894.00;5071402;28;20094;-83
2022/05/08 03:31:51;;;;;;;0.30;0.30;;;;;;;12.28;59.73;102902.84;5068908;28;20027;-85
2022/05/08 03:34:17;;;;;;;0.10;0.10;;;;;;;12.29;59.63;102904.63;5070457;28;20041;-84
2022/05/08 03:36:44;;;;;;;0.10;0.10;;;;;;;12.26;59.49;102904.63;5070975;28;20029;-83
2022/05/08 03:39:13;;;;;;;0.00;0.00;;;;;;;12.22;60.12;102908.13;5070370;28;20524;-83
2022/05/08 03:41:39;;;;;;;0.28;0.28;;;;;;;12.19;59.74;102905.47;5064782;28;20037;-83
2022/05/08 03:44:06;;;;;;;0.10;0.10;;;;;;;12.16;60.00;102917.84;5065071;28;20059;-83
2022/05/08 03:46:32;;;;;;;0.00;0.00;;;;;;;12.09;59.76;102916.94;5072671;28;20103;-83
2022/05/08 03:48:58;;;;;;;0.00;0.00;;;;;;;12.05;60.01;102920.41;5068292;28;20033;-82
2022/05/08 03:51:25;;;;;;;0.00;0.00;;;;;;;12.00;60.09;102914.19;5068179;28;20058;-82
2022/05/08 03:53:51;;;;;;;0.03;0.03;;;;;;;11.97;60.34;102918.63;5075769;28;20455;-81
2022/05/08 03:56:17;;;;;;;0.00;0.00;;;;;;;11.94;60.20;102913.25;5072418;28;20044;-81
2022/05/08 03:58:43;;;;;;;0.00;0.00;;;;;;;11.92;60.08;102914.97;5064562;28;20037;-81
2022/05/08 04:01:10;;;;;;;0.10;0.10;;;;;;;11.90;59.94;102919.41;5070218;28;20036;-80
2022/05/08 04:03:36;;;;;;;0.00;0.00;;;;;;;11.86;59.93;102925.56;5069283;28;20021;-82
2022/05/08 04:06:03;;;;;;;0.45;0.30;;;;;;;11.87;60.36;102927.34;5071712;28;20059;-81
2022/05/08 04:08:30;;;;;;;0.00;0.00;;;;;;;11.88;60.00;102922.94;5065396;28;20036;-81
2022/05/08 04:10:56;;;;;;;0.10;0.10;;;;;;;11.85;60.64;102923.81;5070173;28;20029;-81
2022/05/08 04:13:22;;;;;;;0.10;0.10;;;;;;;11.81;60.49;102925.53;5068452;28;20155;-82
2022/05/08 04:16:21;;;;;;;0.00;0.00;;;;;;;11.74;60.88;102928.09;5068709;28;20040;-82
2022/05/08 04:18:35;;;;;;;0.10;0.10;;;;;;;11.77;59.90;102925.50;5063678;28;20039;-81
2022/05/08 04:21:01;;;;;;;0.10;0.10;;;;;;;11.75;60.83;102929.91;5064655;28;20116;-81
2022/05/08 04:26:13;;;;;;;0.10;0.10;;;;;;;11.77;60.20;102930.81;5064403;28;21315;-81
2022/05/08 04:28:39;;;;;;;0.00;0.00;;;;;;;11.76;60.60;102939.66;5062460;28;20036;-81
2022/05/08 04:31:06;;;;;;;0.10;0.10;;;;;;;11.78;61.04;102933.47;5070217;28;20029;-81
2022/05/08 04:33:32;;;;;;;0.10;0.10;;;;;;;11.76;60.90;102939.66;5063549;28;20462;-81
2022/05/08 04:35:58;;;;;;;0.10;0.10;;;;;;;11.78;59.90;102945.88;5064811;28;20024;-82
2022/05/08 04:38:24;;;;;;;0.00;0.00;;;;;;;11.79;60.76;102945.00;5064324;28;20033;-82
2022/05/08 04:40:50;;;;;;;0.10;0.10;;;;;;;11.80;60.73;102952.06;5062975;28;20102;-81
2022/05/08 04:43:16;;;;;;;0.08;0.08;;;;;;;11.81;60.47;102953.84;5064492;28;20021;-81
2022/05/08 04:45:42;;;;;;;0.00;0.00;;;;;;;11.83;60.50;102957.41;5064455;28;20052;-81
2022/05/08 04:48:09;;;;;;;2.03;1.85;;;;;;;11.81;61.17;102956.50;5061760;28;20514;-81
2022/05/08 04:50:35;;;;;;;0.00;0.00;;;;;;;11.86;60.85;102962.75;5064151;28;20480;-81
2022/05/08 04:53:01;;;;;;;0.00;0.00;;;;;;;11.89;61.35;102962.78;5065064;28;20037;-81
2022/05/08 04:55:27;;;;;;;0.00;0.00;;;;;;;11.89;61.16;102962.78;5065211;28;20295;-81
2022/05/08 04:57:53;;;;;;;0.08;0.08;;;;;;;11.89;60.41;102952.16;5062393;28;20166;-80
2022/05/08 05:00:19;;;;;;;0.10;0.10;;;;;;;11.93;60.28;102964.59;5068240;28;20427;-80
2022/05/08 05:02:46;;;;;;;0.28;0.28;;;;;;;11.97;60.46;102966.44;5062767;28;20020;-80
2022/05/08 05:05:12;;;;;;;0.00;0.00;;;;;;;12.01;60.82;102966.44;5065768;28;20073;-80
2022/05/08 05:07:40;;;;;;;0.00;0.00;;;;;;;12.09;60.73;102972.72;5065987;28;20032;-82
2022/05/08 05:10:08;;;;;;;0.00;0.00;;;;;;;12.10;60.49;102959.44;5065601;28;20056;-82
2022/05/08 05:12:34;;;;;;;0.00;0.00;;;;;;;12.12;59.84;102964.75;5063730;28;20158;-82
2022/05/08 05:15:01;;;;;;;0.63;0.63;;;;;;;12.06;60.56;102970.03;5076929;28;20024;-82
2022/05/08 05:17:27;;;;;;;0.00;0.00;;;;;;;12.14;60.72;102971.00;5080957;28;20042;-82
2022/05/08 05:19:53;;;;;;;0.10;0.10;;;;;;;12.16;60.48;102979.84;5073389;28;20124;-84
2022/05/08 05:22:22;;;;;;;0.10;0.10;;;;;;;12.16;60.30;102971.00;5076729;28;20033;-83
2022/05/08 05:24:48;;;;;;;0.00;0.00;;;;;;;12.19;60.11;102973.69;5071733;28;20055;-84
2022/05/08 05:27:14;;;;;;;0.00;0.00;;;;;;;12.22;60.74;102981.69;5080031;28;20032;-83
2022/05/08 05:29:40;;;;;;;0.05;0.05;;;;;;;12.25;60.36;102990.56;5070027;28;20492;-83
2022/05/08 05:32:06;;;;;;;0.00;0.00;;;;;;;12.23;60.39;102979.03;5072921;28;20052;-84
2022/05/08 05:34:33;;;;;;;0.00;0.00;;;;;;;12.30;60.67;102980.84;5084116;28;20042;-83
2022/05/08 05:36:59;;;;;;;0.10;0.10;;;;;;;12.27;60.42;102983.50;5079580;28;20028;-84
2022/05/08 05:39:25;;;;;;;0.05;0.05;;;;;;;12.36;59.88;102984.44;5074467;28;20056;-84
2022/05/08 05:41:51;;;;;;;0.10;0.10;;;;;;;12.42;60.09;102989.78;5067346;28;20039;-84
2022/05/08 05:44:18;;;;;;;0.20;0.20;;;;;;;12.47;59.79;102988.03;5072481;28;20051;-83
2022/05/08 05:49:30;;;;;;;0.15;0.15;;;;;;;12.47;59.94;102985.38;5070232;28;20028;-83
2022/05/08 05:51:57;;;;;;;0.10;0.10;;;;;;;12.57;59.42;102996.97;5067659;28;20413;-82
2022/05/08 05:54:25;;;;;;;0.10;0.10;;;;;;;12.59;59.28;102995.22;5073658;28;20087;-83
2022/05/08 05:56:51;;;;;;;0.20;0.20;;;;;;;12.71;59.19;102987.31;5076357;28;20051;-83
2022/05/08 05:59:18;;;;;;;0.38;0.38;;;;;;;12.78;58.83;102989.13;5083989;28;20024;-83
2022/05/08 06:01:44;;;;;;;0.05;0.05;;;;;;;12.70;58.64;102979.34;5081074;22;20051;-81
2022/05/08 06:04:10;;;;;;;0.10;0.10;;;;;;;12.82;58.29;102989.13;5073038;28;20277;-80
2022/05/08 06:06:37;;;;;;;0.00;0.00;;;;;;;12.91;58.01;102998.06;5093775;28;20035;-80
2022/05/08 06:09:03;;;;;;;1.60;1.50;;;;;;;12.94;58.50;102990.06;5091763;28;20052;-80
2022/05/08 06:11:29;;;;;;;0.00;0.00;;;;;;;13.01;58.00;102998.09;5087647;28;20032;-79
2022/05/08 06:13:55;;;;;;;0.03;0.03;;;;;;;13.02;58.19;102999.88;5092235;28;20036;-80
2022/05/08 06:16:21;;;;;;;0.20;0.20;;;;;;;13.07;57.44;103004.34;5091693;28;20024;-80
2022/05/08 06:18:47;;;;;;;0.03;0.03;;;;;;;13.09;57.72;103009.66;5090317;28;20413;-81
2022/05/08 06:21:13;;;;;;;0.00;0.00;;;;;;;13.16;57.40;103010.56;5094588;28;20040;-81
2022/05/08 06:23:40;;;;;;;0.17;0.17;;;;;;;13.22;57.10;103003.50;5094418;28;20024;-81
2022/05/08 06:26:06;;;;;;;0.17;0.17;;;;;;;13.27;56.86;103009.72;5088881;28;20032;-82
2022/05/08 06:28:32;;;;;;;0.10;0.10;;;;;;;13.36;56.76;103010.66;5090477;28;20424;-83
2022/05/08 06:30:59;;;;;;;0.00;0.00;;;;;;;13.45;57.40;103018.69;5088735;28;20518;-83
2022/05/08 06:33:26;;;;;;;0.10;0.10;;;;;;;13.48;56.99;103013.38;5087123;28;20040;-83
2022/05/08 06:35:54;;;;;;;0.00;0.00;;;;;;;13.56;56.80;103018.72;5091185;28;20021;-83
2022/05/08 06:38:20;;;;;;;0.10;0.10;;;;;;;13.55;56.40;103015.16;5084288;28;20397;-83
2022/05/08 06:40:46;;;;;;;0.10;0.10;;;;;;;13.49;55.93;103008.94;5085487;28;20107;-83
2022/05/08 06:43:12;;;;;;;0.00;0.00;;;;;;;13.58;55.68;103017.84;5081891;28;20028;-85
2022/05/08 06:45:38;;;;;;;0.55;0.43;;;;;;;13.68;55.80;103017.84;5088468;28;20436;-84
2022/05/08 06:48:06;;;;;;;0.00;0.00;;;;;;;13.66;54.53;103020.53;5082774;28;20028;-84
2022/05/08 06:50:33;;;;;;;0.10;0.10;;;;;;;13.76;54.76;103026.75;5089296;28;20031;-84
2022/05/08 06:53:00;;;;;;;0.00;0.00;;;;;;;13.83;55.29;103019.66;5087686;28;20024;-81
2022/05/08 06:55:26;;;;;;;0.28;0.28;;;;;;;13.91;54.67;103029.44;5090606;28;20447;-81
2022/05/08 06:57:52;;;;;;;0.00;0.00;;;;;;;13.95;55.00;103025.00;5093845;28;20035;-80
2022/05/08 07:03:05;;;;;;;0.00;0.00;;;;;;;14.08;54.30;103025.88;5088700;28;20071;-81
2022/05/08 07:05:32;;;;;;;0.00;0.00;;;;;;;14.11;54.27;103033.91;5088208;28;20059;-84
2022/05/08 07:07:58;;;;;;;0.10;0.10;;;;;;;14.06;52.79;103030.34;5092001;28;20036;-80
2022/05/08 07:10:24;;;;;;;0.00;0.00;;;;;;;14.13;53.20;103032.13;5091940;28;20035;-81
2022/05/08 07:12:50;;;;;;;0.08;0.08;;;;;;;14.20;53.21;103033.88;5080755;28;20031;-81
2022/05/08 07:15:16;;;;;;;0.30;0.30;;;;;;;14.29;53.49;103041.00;5086375;28;20036;-80
2022/05/08 07:17:42;;;;;;;0.70;0.65;;;;;;;14.34;53.71;103030.34;5083432;28;20040;-80
2022/05/08 07:20:09;;;;;;;0.00;0.00;;;;;;;14.43;53.58;103030.34;5093723;28;20074;-79
2022/05/08 07:22:36;;;;;;;0.35;0.35;;;;;;;14.47;51.79;103034.78;5089650;28;20032;-79
2022/05/08 07:25:03;;;;;;;20.38;1.00;;;;;;;14.54;52.24;103036.53;5081535;28;20595;-79
2022/05/08 07:27:31;;;;;;;0.00;0.00;;;;;;;14.56;51.98;103032.06;5085574;28;20108;-79
2022/05/08 07:29:57;;;;;;;0.00;0.00;;;;;;;14.62;51.60;103035.66;5092477;28;20032;-79
2022/05/08 07:32:24;;;;;;;0.00;0.00;;;;;;;14.70;51.58;103031.19;5089256;28;20451;-79
2022/05/08 07:37:37;;;;;;;0.00;0.00;;;;;;;14.81;50.95;103034.72;5088562;28;20036;-80
2022/05/08 07:40:03;;;;;;;0.00;0.00;;;;;;;14.92;50.96;103037.38;5086816;28;20028;-80
2022/05/08 07:42:33;;;;;;;0.10;0.10;;;;;;;15.06;51.77;103042.66;5087843;28;20071;-84
2022/05/08 07:44:59;;;;;;;0.03;0.03;;;;;;;15.26;53.79;103047.03;5086654;28;20028;-85
2022/05/08 07:47:25;;;;;;;0.08;0.08;;;;;;;15.59;53.83;103050.44;5089561;28;20406;-84
2022/05/08 07:49:51;;;;;;;0.03;0.03;;;;;;;15.88;52.39;103046.75;5084841;28;20050;-88
2022/05/08 07:52:17;;;;;;;0.10;0.10;;;;;;;16.13;51.74;103050.09;5086005;28;20118;-84
2022/05/08 07:54:45;;;;;;;0.10;0.10;;;;;;;16.31;50.80;103057.06;5084966;28;20040;-86
2022/05/08 07:57:12;;;;;;;0.00;0.00;;;;;;;16.47;50.72;103048.03;5087687;28;20032;-86
2022/05/08 07:59:38;;;;;;;0.00;0.00;;;;;;;16.60;50.32;103045.22;5086366;28;20420;-86
2022/05/08 08:02:04;;;;;;;0.10;0.10;;;;;;;16.72;49.81;103052.22;5088172;28;20031;-84
2022/05/08 08:04:31;;;;;;;0.08;0.08;;;;;;;16.78;49.80;103053.03;5084582;28;20565;-86
2022/05/08 08:07:00;;;;;;;0.10;0.10;;;;;;;16.88;49.62;103055.63;5086725;28;20436;-87
2022/05/08 08:09:26;;;;;;;0.10;0.10;;;;;;;16.95;49.02;103060.06;5081247;28;20044;-85
2022/05/08 08:11:53;;;;;;;0.20;0.20;;;;;;;16.93;48.81;103056.50;5083097;28;20024;-88
2022/05/08 08:14:20;;;;;;;0.30;0.20;;;;;;;16.96;48.48;103060.03;5085603;28;20116;-86
2022/05/08 08:16:47;;;;;;;4.90;0.55;;;;;;;17.05;48.98;103052.81;5088727;28;20028;-88
2022/05/08 08:19:13;;;;;;;16.65;1.52;;;;;;;17.11;48.67;103044.69;5091201;28;20028;-86
2022/05/08 08:21:40;;;;;;;0.17;0.17;;;;;;;17.11;47.91;103050.94;5084653;28;20115;-87
2022/05/08 08:24:09;;;;;;;0.10;0.10;;;;;;;17.21;48.16;103046.34;5086403;28;20044;-89
2022/05/08 08:26:39;;;;;;;0.98;0.98;;;;;;;17.23;47.99;103044.50;5089443;28;20028;-85
2022/05/08 08:29:05;;;;;;;8.68;1.20;;;;;;;17.30;47.80;103048.03;5086156;28;20024;-84
2022/05/08 08:31:31;;;;;;;0.00;0.00;;;;;;;17.43;47.81;103041.59;5091311;28;20027;-84
2022/05/08 08:33:58;;;;;;;0.00;0.00;;;;;;;17.53;47.60;103047.69;5095407;22;20024;-83
2022/05/08 08:36:24;;;;;;;0.00;0.00;;;;;;;17.58;47.12;103047.63;5050638;28;20044;-85
2022/05/08 08:38:50;;;;;;;0.03;0.03;;;;;;;17.56;46.64;103038.75;5049372;28;20044;-83
2022/05/08 08:41:21;;;;;;;0.00;0.00;;;;;;;17.59;46.65;103046.72;5047474;28;20034;-83
2022/05/08 08:49:22;;;;;;;0.00;0.00;;;;;;;17.65;46.64;103043.09;5036967;28;21520;-81
2022/05/08 08:51:49;;;;;;;0.00;0.00;;;;;;;17.71;46.75;103040.31;5043018;28;20052;-81
2022/05/08 08:54:19;;;;;;;0.10;0.10;;;;;;;17.75;46.54;103040.22;5034851;28;20037;-81
2022/05/08 08:56:46;;;;;;;0.00;0.00;;;;;;;17.85;46.05;103040.09;5032739;28;20172;-81
2022/05/08 08:59:12;;;;;;;0.00;0.00;;;;;;;17.82;45.33;103037.44;5033828;28;20029;-81
2022/05/08 09:01:41;;;;;;;0.00;0.00;;;;;;;17.89;45.53;103040.00;5044160;28;20441;-81
2022/05/08 09:04:09;;;;;;;1.63;1.00;;;;;;;17.94;45.29;103045.34;5040922;28;20043;-81
2022/05/08 09:06:44;;;;;;;0.00;0.00;;;;;;;18.03;45.02;103042.53;5029761;28;20036;-81
2022/05/08 09:12:16;;;;;;;0.00;0.00;;;;;;;18.20;45.34;103038.66;5111210;27;20422;-83
2022/05/08 09:14:42;;;;;;;0.65;0.65;;;;;;;18.19;44.95;103035.09;5100193;28;20058;-84
2022/05/08 09:17:08;;;;;;;0.10;0.10;;;;;;;18.23;44.36;103033.22;5089799;28;20048;-82
2022/05/08 09:19:37;;;;;;;0.10;0.10;;;;;;;18.32;44.52;103045.59;5096163;28;20032;-82
2022/05/08 09:22:05;;;;;;;0.30;0.30;;;;;;;18.36;44.45;103033.94;5095845;28;20028;-82
2022/05/08 09:24:31;;;;;;;0.10;0.10;;;;;;;18.30;42.35;103040.28;5092272;28;20035;-82
2022/05/08 09:27:14;;;;;;;0.20;0.20;;;;;;;18.53;44.11;103030.91;5093524;28;20055;-82
2022/05/08 09:29:42;;;;;;;0.05;0.05;;;;;;;18.51;43.83;103027.41;5093377;28;20090;-82
2022/05/08 09:32:08;;;;;;;0.08;0.08;;;;;;;18.55;43.82;103031.78;5085504;28;20074;-82
2022/05/08 09:34:57;;;;;;;0.10;0.10;;;;;;;18.69;42.92;103029.72;5090368;28;20560;-81
2022/05/08 09:37:24;;;;;;;0.00;0.00;;;;;;;18.66;43.39;103026.22;5088553;28;20131;-81
2022/05/08 09:39:51;;;;;;;0.10;0.10;;;;;;;18.69;43.38;103027.03;5085185;28;20041;-81
2022/05/08 09:42:37;;;;;;;0.20;0.20;;;;;;;18.90;43.55;103020.41;5085361;28;20028;-84
2022/05/08 09:45:07;;;;;;;0.00;0.00;;;;;;;18.86;42.92;103017.75;5085826;28;20039;-83
2022/05/08 09:47:51;;;;;;;0.50;0.50;;;;;;;18.96;42.31;103023.88;5086314;28;20555;-85
2022/05/08 09:50:18;;;;;;;0.10;0.10;;;;;;;18.94;42.99;103023.00;5081206;28;20600;-85
2022/05/08 09:52:45;;;;;;;0.10;0.10;;;;;;;19.01;42.03;103027.34;5087335;28;20028;-82
2022/05/08 09:55:13;;;;;;;0.00;0.00;;;;;;;18.97;41.80;103014.91;5087242;28;20534;-84
2022/05/08 09:57:40;;;;;;;0.10;0.10;;;;;;;19.06;42.48;103020.94;5090186;28;20078;-84
2022/05/08 10:00:08;;;;;;;0.10;0.10;;;;;;;19.13;41.93;103020.81;5087192;28;20861;-84
2022/05/08 10:02:37;;;;;;;0.00;0.00;;;;;;;19.22;42.34;103020.63;5091500;28;20062;-84
2022/05/08 10:05:03;;;;;;;0.47;0.30;;;;;;;19.16;41.37;103020.75;5090718;28;20036;-85
2022/05/08 10:07:30;;;;;;;0.70;0.70;;;;;;;19.22;41.96;103021.50;5087714;28;20032;-85
2022/05/08 10:18:27;;;;;;;0.40;0.40;;;;;;;19.54;41.61;103019.03;5067080;27;20824;-84
2022/05/08 10:21:12;;;;;;;0.00;0.00;;;;;;;19.77;41.72;103017.59;5060250;28;20813;-82
2022/05/08 10:23:45;;;;;;;0.00;0.00;;;;;;;19.72;40.96;103015.00;5049126;28;20027;-84
2022/05/08 10:31:45;;;;;;;0.00;0.00;;;;;;;19.72;40.14;103007.81;5101146;27;20401;-86
2022/05/08 10:34:14;;;;;;;0.10;0.10;;;;;;;19.70;40.66;103004.28;5090930;28;20032;-85
2022/05/08 10:37:00;;;;;;;0.10;0.10;;;;;;;19.76;40.38;102997.00;5096048;28;20032;-85
2022/05/08 10:39:47;;;;;;;0.10;0.10;;;;;;;19.91;40.79;102999.31;5093019;28;20117;-85
2022/05/08 10:45:06;;;;;;;0.52;0.52;;;;;;;19.86;40.88;102996.78;5103496;27;20926;-84
2022/05/08 10:50:13;;;;;;;0.10;0.10;;;;;;;19.78;39.27;102995.16;5061962;28;20127;-84
2022/05/08 10:52:41;;;;;;;0.00;0.00;;;;;;;19.85;40.74;102999.47;5038147;28;20036;-85
2022/05/08 10:55:12;;;;;;;0.10;0.10;;;;;;;19.92;40.53;102993.03;5037500;28;20502;-85
2022/05/08 10:57:39;;;;;;;0.00;0.00;;;;;;;19.97;40.68;102999.16;5034683;28;20025;-85
2022/05/08 11:00:08;;;;;;;0.00;0.00;;;;;;;19.94;40.74;103003.75;5037853;28;20053;-84
2022/05/08 11:02:47;;;;;;;0.00;0.00;;;;;;;20.08;40.74;102995.34;5035358;28;20100;-85
2022/05/08 11:05:19;;;;;;;0.00;0.00;;;;;;;20.08;39.40;103003.41;5037493;28;20036;-85
2022/05/08 11:07:50;;;;;;;0.00;0.00;;;;;;;20.19;40.19;102995.94;5036720;28;20518;-85
2022/05/08 11:10:24;;;;;;;0.10;0.10;;;;;;;20.20;39.72;103003.09;5036184;28;20079;-82
2022/05/08 11:18:25;;;;;;;0.08;0.08;;;;;;;20.25;39.72;102993.09;5103000;27;20436;-82
2022/05/08 11:20:55;;;;;;;0.00;0.00;;;;;;;20.33;40.08;102996.44;5093648;27;20459;-83
2022/05/08 11:23:23;;;;;;;0.10;0.10;;;;;;;20.33;38.50;102996.44;5089169;28;20111;-82
2022/05/08 11:25:52;;;;;;;0.00;0.00;;;;;;;20.32;38.23;102991.97;5084906;28;20039;-83
2022/05/08 11:28:22;;;;;;;0.10;0.10;;;;;;;20.40;39.43;102996.28;5085374;28;20028;-82
2022/05/08 11:30:49;;;;;;;0.00;0.00;;;;;;;20.44;39.48;102998.84;5086928;28;20111;-83
2022/05/08 11:36:06;;;;;;;0.20;0.20;;;;;;;20.55;38.71;102990.47;5082398;28;20051;-83
2022/05/08 11:38:50;;;;;;;0.30;0.30;;;;;;;20.59;39.07;102992.16;5080961;28;20059;-85
2022/05/08 11:41:19;;;;;;;2.80;1.95;;;;;;;20.69;38.83;102980.19;5080036;28;20118;-84
2022/05/08 11:43:47;;;;;;;0.00;0.00;;;;;;;20.77;38.79;102979.13;5079314;28;20039;-84
2022/05/08 11:46:18;;;;;;;0.00;0.00;;;;;;;20.71;38.34;102981.94;5079203;28;20093;-84
2022/05/08 11:48:47;;;;;;;0.57;0.57;;;;;;;20.59;37.94;102965.22;5083154;28;20024;-84
2022/05/08 11:51:17;;;;;;;0.00;0.00;;;;;;;20.63;38.19;102966.88;5084429;28;20040;-84
2022/05/08 11:53:49;;;;;;;0.00;0.00;;;;;;;20.72;37.88;102967.59;5079095;28;20396;-84
2022/05/08 11:59:03;;;;;;;0.00;0.00;;;;;;;20.89;37.36;102965.28;5084529;27;20414;-85
2022/05/08 12:04:29;;;;;;;0.00;0.00;;;;;;;20.98;36.22;102975.78;5120392;27;20390;-85
2022/05/08 12:07:13;;;;;;;0.22;0.22;;;;;;;20.94;37.63;102965.16;5123584;22;20044;-83
2022/05/08 12:09:52;;;;;;;0.10;0.10;;;;;;;21.12;37.43;102958.31;5061793;28;20048;-83
2022/05/08 12:12:23;;;;;;;0.00;0.00;;;;;;;21.12;36.53;102961.00;5063179;28;20029;-82
2022/05/08 12:14:50;;;;;;;0.00;0.00;;;;;;;21.26;37.09;102956.06;5067301;28;20037;-83
2022/05/08 12:17:16;;;;;;;0.10;0.10;;;;;;;21.33;36.30;102962.13;5074066;28;20027;-81
2022/05/08 12:19:51;;;;;;;0.60;0.60;;;;;;;21.41;36.10;102961.88;5075988;28;20039;-83
2022/05/08 12:22:27;;;;;;;0.00;0.00;;;;;;;21.38;36.58;102953.91;5070721;28;20070;-84